Latest Coastal Weather Observations for Cerberus

IDV60701

Issued at 11:22 am EST Tuesday 30 May 2017 (issued every 10 minutes, with the page automatically refreshed every 10 minutes)

About coastal observations | Map of coastal stations | Coastal observations for VIC | Marine services | Other Formats
Station Details ID: 086361 Name: CERBERUS Lat: -38.36 Lon: 145.18 Height: 12.69 m
Data from the previous 72 hours. | See also: Recent months at Cerberus
Date/Time
EST
Temp
°C
Wind Pressure Rain since
9am
mm
Weather Cloud Vis
km
Sea
Height
m
Swell
Dir  Spd
kts
Gust
kts
hPa Trend Height
m
Period
s
Dir
30/11:00am 10.0 WSW 12 21 1021.9 - 0.6 - - - - - - -
30/10:30am 11.6 W 6 9 1021.2 - 0.2 - - - - - - -
30/10:00am 10.2 W 7 11 1021.0 - 0.2 - - - - - - -
30/09:30am 10.6 W 5 8 1020.9 - 0.0 - - - - - - -
30/09:00am 10.3 W 8 13 1020.4 - 6.4 Recent precip. - - - - - -
30/08:30am 9.4 W 8 12 1019.9 - 6.4 - - - - - - -
30/08:00am 9.7 W 8 11 1019.6 - 6.2 - - - - - - -
30/07:30am 9.9 W 8 19 1019.3 - 6.0 - - - - - - -
30/07:00am 10.2 W 7 11 1018.8 - 6.0 - - - - - - -
30/06:30am 10.0 WNW 8 12 1018.3 - 5.8 - - - - - - -
30/06:00am 11.2 NW 8 13 1017.3 - 0.2 - - - - - - -
30/05:30am 11.6 NNW 8 16 1016.7 - 0.2 - - - - - - -
30/05:00am 11.8 N 6 11 1016.8 - 0.2 - - - - - - -
30/04:30am 11.5 N 6 14 1016.8 - 0.2 - - - - - - -
30/04:00am 11.5 NNW 7 13 1017.1 - 0.2 - - - - - - -
30/03:30am 11.5 N 7 13 1017.4 - 0.2 - - - - - - -
30/03:00am 11.6 NNW 9 17 1017.5 - 0.2 - - - - - - -
30/02:30am 11.9 N 9 18 1017.5 - 0.2 - - - - - - -
30/02:00am 12.1 N 10 16 1017.5 - 0.2 - - - - - - -
30/01:30am 11.8 NNW 10 18 1017.7 - 0.2 - - - - - - -
30/01:00am 11.1 NNW 12 19 1017.7 - 0.2 - - - - - - -
30/12:30am 11.2 NNW 10 18 1018.2 - 0.0 - - - - - - -
30/12:00am 11.8 NNW 10 20 1018.5 - 0.0 - - - - - - -
 
Date/Time
EST
Temp
°C
Wind Pressure Rain since
9am
mm
Weather Cloud Vis
km
Sea
Height
m
Swell
Dir  Spd
kts
Gust
kts
hPa Trend Height
m
Period
s
Dir
29/11:30pm 12.5 NNW 9 17 1018.5 - 0.0 - - - - - - -
29/11:00pm 11.9 NNW 8 13 1018.6 - 0.0 - - - - - - -
29/10:30pm 11.9 NNW 7 11 1018.7 - 0.0 - - - - - - -
29/10:00pm 11.4 N 6 11 1019.0 - 0.0 - - - - - - -
29/09:30pm 11.7 NNW 7 11 1019.0 - 0.0 - - - - - - -
29/09:00pm 12.2 NNW 7 11 1019.1 - 0.0 - - - - - - -
29/08:30pm 12.6 NNW 7 16 1019.0 - 0.0 - - - - - - -
29/08:00pm 12.8 NNW 8 13 1019.0 - 0.0 - - - - - - -
29/07:30pm 12.7 NNW 6 11 1019.3 - 0.0 - - - - - - -
29/07:00pm 12.7 NW 6 11 1019.1 - 0.0 - - - - - - -
29/06:30pm 12.4 NW 6 10 1019.1 - 0.0 - - - - - - -
29/06:00pm 12.2 NNW 5 8 1018.9 - 0.0 - - - - - - -
29/05:30pm 12.4 NW 7 12 1018.9 - 0.0 - - - - - - -
29/05:00pm 12.4 NW 9 13 1018.7 - 0.0 - - - - - - -
29/04:30pm 12.7 NW 9 13 1018.6 - 0.0 - - - - - - -
29/04:00pm 13.1 WNW 7 12 1018.6 - 0.0 - - - - - - -
29/03:30pm 13.4 NW 6 10 1018.6 - 0.0 - - - - - - -
29/03:00pm 13.5 WNW 8 12 1018.4 - 0.0 - - - - - - -
29/02:30pm 13.2 WNW 9 15 1018.4 - 0.0 - - - - - - -
29/02:00pm 12.9 NW 10 16 1018.4 - 0.0 - - - - - - -
29/01:30pm 13.4 WNW 10 14 1018.4 - 0.0 - - - - - - -
29/01:00pm 13.0 NW 11 16 1018.6 - 0.0 - - - - - - -
29/12:30pm 12.7 NW 10 15 1018.6 - 0.0 - - - - - - -
29/12:00pm 12.0 WNW 10 17 1018.8 - 0.0 - - - - - - -
29/11:30am 12.0 WNW 10 19 1018.9 - 0.0 - - - - - - -
29/11:00am 11.2 WNW 12 22 1019.1 - 0.0 - - - - - - -
29/10:30am 10.9 WNW 11 18 1019.1 - 0.0 - - - - - - -
29/10:00am 11.2 WNW 9 14 1018.7 - 0.0 - - - - - - -
29/09:30am 10.4 WNW 10 16 1018.5 - 0.0 - - - - - - -
29/09:00am 9.9 WNW 11 20 1018.1 - 7.2 - - - - - - -
29/08:30am 9.2 WNW 10 16 1017.6 - 7.2 - - - - - - -
29/08:00am 8.4 NW 6 10 1017.3 - 7.2 - - - - - - -
29/07:30am 8.6 WNW 7 11 1017.2 - 7.2 - - - - - - -
29/07:00am 8.6 WNW 7 12 1017.0 - 7.2 - - - - - - -
29/06:30am 8.4 W 6 10 1016.5 - 7.0 - - - - - - -
29/06:00am 8.0 NW 8 13 1015.8 - 7.0 - - - - - - -
29/05:30am 8.0 NW 8 11 1015.3 - 7.0 - - - - - - -
29/05:00am 8.0 NW 7 13 1015.1 - 7.0 - - - - - - -
29/04:30am 8.2 NW 8 13 1014.8 - 6.8 - - - - - - -
29/04:00am 8.0 NW 7 11 1014.6 - 6.8 - - - - - - -
29/03:30am 8.3 NW 7 11 1014.6 - 6.8 - - - - - - -
29/03:00am 8.0 NW 6 10 1014.1 - 6.6 Recent precip. - - - - - -
29/02:30am 8.1 WNW 7 12 1014.4 - 6.6 - - - - - - -
29/02:00am 7.9 NW 5 9 1014.0 - 6.2 - - - - - - -
29/01:30am 8.3 NW 7 11 1013.8 - 5.6 - - - - - - -
29/01:00am 8.2 NW 7 11 1013.7 - 4.8 - - - - - - -
29/12:30am 8.0 W 7 11 1013.6 - 4.6 - - - - - - -
29/12:00am 7.5 NW 7 10 1013.0 - 4.2 - - - - - - -
 
Date/Time
EST
Temp
°C
Wind Pressure Rain since
9am
mm
Weather Cloud Vis
km
Sea
Height
m
Swell
Dir  Spd
kts
Gust
kts
hPa Trend Height
m
Period
s
Dir
28/11:30pm 8.0 WNW 9 13 1012.9 - 4.2 - - - - - - -
28/11:00pm 7.5 WNW 6 10 1012.5 - 4.2 - - - - - - -
28/10:30pm 7.0 WNW 5 6 1012.4 - 4.2 - - - - - - -
28/10:00pm 7.7 SW 11 18 1012.6 - 1.4 - - - - - - -
28/09:30pm 9.1 WNW 9 13 1011.3 - 0.0 - - - - - - -
28/09:00pm 9.1 WNW 8 12 1011.1 - 0.0 - - - - - - -
28/08:30pm 9.3 WNW 10 15 1010.6 - 0.0 - - - - - - -
28/08:00pm 9.4 WNW 8 12 1010.3 - 0.0 - - - - - - -
28/07:30pm 9.4 WNW 9 14 1010.0 - 0.0 - - - - - - -
28/07:00pm 9.4 WNW 9 15 1009.5 - 0.0 - - - - - - -
28/06:30pm 9.5 WNW 10 15 1009.1 - 0.0 - - - - - - -
28/06:00pm 9.9 WNW 9 14 1008.7 - 0.0 - - - - - - -
28/05:30pm 10.2 WNW 10 16 1008.2 - 0.0 - - - - - - -
28/05:00pm 10.2 WNW 8 12 1007.8 - 0.0 - - - - - - -
28/04:30pm 10.6 WNW 9 14 1007.4 - 0.0 - - - - - - -
28/04:00pm 11.2 WNW 11 17 1007.1 - 0.0 - - - - - - -
28/03:30pm 11.6 WNW 10 15 1006.8 - 0.0 - - - - - - -
28/03:00pm 11.3 NW 10 16 1006.5 - 0.0 - - - - - - -
28/02:30pm 11.6 WNW 9 16 1006.5 - 0.0 - - - - - - -
28/02:00pm 12.5 WNW 13 22 1006.3 - 0.0 - - - - - - -
28/01:30pm 13.2 WNW 9 16 1006.3 - 0.0 - - - - - - -
28/01:00pm 12.7 WNW 12 18 1006.2 - 0.0 - - - - - - -
28/12:30pm 11.8 WNW 10 17 1006.5 - 0.0 - - - - - - -
28/12:00pm 11.7 WNW 11 18 1007.0 - 0.0 - - - - - - -
28/11:30am 11.4 WNW 10 16 1007.2 - 0.0 - - - - - - -
28/11:00am 11.8 WNW 11 17 1007.2 - 0.0 - - - - - - -
28/10:30am 12.2 NW 10 17 1007.0 - 0.0 - - - - - - -
28/10:00am 11.9 WNW 10 17 1007.0 - 0.0 - - - - - - -
28/09:30am 11.4 WNW 13 20 1006.8 - 0.0 - - - - - - -
28/09:00am 11.4 WNW 12 19 1006.6 - 12.0 Recent precip. - - - - - -
28/08:30am 10.8 WNW 12 19 1006.7 - 11.8 - - - - - - -
28/08:00am 10.9 WNW 7 13 1006.6 - 11.8 - - - - - - -
28/07:30am 10.8 WNW 8 12 1006.3 - 11.8 - - - - - - -
28/07:00am 10.8 NW 8 13 1006.3 - 11.8 - - - - - - -
28/06:30am 10.7 NW 7 12 1006.2 - 11.8 - - - - - - -
28/06:00am 10.6 NW 6 9 1006.2 - 11.8 Recent precip. - - - - - -
28/05:30am 10.8 NW 8 14 1006.0 - 11.4 - - - - - - -
28/05:00am 11.0 NW 6 10 1005.8 - 11.4 - - - - - - -
28/04:30am 10.1 N 2 4 1006.1 - 11.4 - - - - - - -
28/04:00am 10.1 N 3 8 1006.1 - 11.4 - - - - - - -
28/03:30am 10.2 WSW 1 3 1006.5 - 11.4 - - - - - - -
28/03:00am 10.3 N 4 9 1005.6 - 11.4 Recent precip. - - - - - -
28/02:30am 10.4 NNW 5 8 1006.3 - 11.4 - - - - - - -
28/02:00am 10.7 NW 8 12 1006.9 - 11.0 - - - - - - -
28/01:30am 10.9 WNW 9 15 1007.0 - 8.4 - - - - - - -
28/01:00am 10.9 WNW 7 11 1007.0 - 6.6 - - - - - - -
28/12:30am 11.5 W 11 19 1007.1 - 2.8 - - - - - - -
28/12:00am 15.2 N 9 17 1006.3 - 1.0 - - - - - - -
 
Date/Time
EST
Temp
°C
Wind Pressure Rain since
9am
mm
Weather Cloud Vis
km
Sea
Height
m
Swell
Dir  Spd
kts
Gust
kts
hPa Trend Height
m
Period
s
Dir
27/11:30pm 15.1 N 10 18 1006.7 - 1.0 - - - - - - -
27/11:00pm 14.4 N 5 10 1007.3 - 1.0 - - - - - - -
27/10:30pm 13.4 NNE 4 7 1008.0 - 1.0 - - - - - - -
27/10:00pm 14.0 N 7 13 1008.3 - 0.8 - - - - - - -
27/09:30pm 16.1 N 6 12 1008.8 - 0.0 - - - - - - -
27/09:00pm 16.0 N 7 13 1008.9 - 0.0 - - - - - - -
27/08:30pm 16.0 N 7 12 1009.1 - 0.0 - - - - - - -
27/08:00pm 15.6 N 5 10 1009.4 - 0.0 - - - - - - -
27/07:30pm 16.3 N 7 14 1009.7 - 0.0 - - - - - - -
27/07:00pm 15.8 N 5 10 1010.0 - 0.0 - - - - - - -
27/06:30pm 15.6 N 5 9 1009.9 - 0.0 - - - - - - -
27/06:00pm 15.9 N 6 11 1010.1 - 0.0 - - - - - - -
27/05:30pm 16.2 N 8 13 1010.2 - 0.0 - - - - - - -
27/05:00pm 16.4 N 7 13 1010.4 - 0.0 - - - - - - -
27/04:30pm 16.5 N 7 13 1010.7 - 0.0 - - - - - - -
27/04:00pm 16.6 N 8 15 1011.0 - 0.0 - - - - - - -
27/03:30pm 16.8 N 9 16 1011.0 - 0.0 - - - - - - -
27/03:00pm 17.0 N 10 19 1011.4 - 0.0 - - - - - - -
27/02:30pm 17.3 N 11 19 1011.5 - 0.0 - - - - - - -
27/02:00pm 17.4 N 9 16 1012.0 - 0.0 - - - - - - -
27/01:30pm 17.1 N 10 18 1012.6 - 0.0 - - - - - - -
27/01:00pm 17.5 N 8 16 1013.1 - 0.0 - - - - - - -
27/12:30pm 16.8 N 9 20 1013.7 - 0.0 - - - - - - -
27/12:00pm 16.8 NNW 10 17 1014.6 - 0.0 - - - - - - -
27/11:30am 16.8 NNW 10 17 1015.3 - 0.0 - - - - - - -

Other Formats:

Comma delimited format used in spreadsheet applications
http://www.bom.gov.au/fwo/IDV60701/IDV60701.94898.axf

JavaScript Object Notation format (JSON) in row-major order
http://www.bom.gov.au/fwo/IDV60701/IDV60701.94898.json